Time,TemperatureF,DewpointF,PressureIn,WindDirection,WindDirectionDegrees,WindSpeedMPH,WindSpeedGustMPH,Humidity,HourlyPrecipIn,Conditions,Clouds,dailyrainin,SoftwareType,DateUTC
2013-02-01 00:02:00,79.0,-99.9,30.03,East,90,16.0,18.0,-999,-99.99,,,-99.99,,2013-02-01 04:02:00,
2013-02-01 00:11:00,79.0,-99.9,30.03,East,90,16.0,18.0,-999,-99.99,,,-99.99,,2013-02-01 04:11:00,
2013-02-01 00:22:00,79.0,-99.9,30.03,East,90,16.0,18.0,-999,-99.99,,,-99.99,,2013-02-01 04:22:00,
2013-02-01 00:32:00,78.0,-99.9,30.03,East,90,13.0,18.0,-999,-99.99,,,-99.99,,2013-02-01 04:32:00,
2013-02-01 00:42:00,78.0,-99.9,30.03,East,90,13.0,18.0,-999,-99.99,,,-99.99,,2013-02-01 04:42:00,
2013-02-01 00:52:00,78.0,-99.9,30.03,East,90,13.0,18.0,-999,-99.99,,,-99.99,,2013-02-01 04:52:00,
2013-02-01 01:04:00,77.0,-99.9,30.03,ESE,110,13.0,18.0,-999,-99.99,,,-99.99,,2013-02-01 05:04:00,
2013-02-01 01:12:00,77.0,-99.9,30.03,ESE,110,13.0,18.0,-999,-99.99,,,-99.99,,2013-02-01 05:12:00,
2013-02-01 01:23:00,77.0,-99.9,30.03,ESE,110,13.0,18.0,-999,-99.99,,,-99.99,,2013-02-01 05:23:00,
2013-02-01 01:32:00,77.0,-99.9,30.03,SE,130,11.0,16.0,-999,-99.99,,,-99.99,,2013-02-01 05:32:00,
2013-02-01 01:42:00,77.0,-99.9,30.03,SE,130,11.0,16.0,-999,-99.99,,,-99.99,,2013-02-01 05:42:00,
2013-02-01 01:52:00,77.0,-99.9,30.03,SE,130,11.0,16.0,-999,-99.99,,,-99.99,,2013-02-01 05:52:00,
2013-02-01 02:02:00,77.0,-99.9,30.02,SE,130,9.0,11.0,-999,-99.99,,,-99.99,,2013-02-01 06:02:00,
2013-02-01 02:12:00,77.0,-99.9,30.02,SE,130,9.0,11.0,-999,-99.99,,,-99.99,,2013-02-01 06:12:00,
2013-02-01 02:22:00,77.0,-99.9,30.02,SE,130,9.0,11.0,-999,-99.99,,,-99.99,,2013-02-01 06:22:00,
2013-02-01 02:32:00,77.0,-99.9,30.02,ESE,110,7.0,9.0,-999,-99.99,,,-99.99,,2013-02-01 06:32:00,
2013-02-01 02:42:00,77.0,-99.9,30.02,ESE,110,7.0,9.0,-999,-99.99,,,-99.99,,2013-02-01 06:42:00,
2013-02-01 02:52:00,77.0,-99.9,30.02,ESE,110,7.0,9.0,-999,-99.99,,,-99.99,,2013-02-01 06:52:00,
2013-02-01 03:02:00,76.0,-99.9,30.01,East,100,9.0,13.0,-999,-99.99,,,-99.99,,2013-02-01 07:02:00,
2013-02-01 03:12:00,76.0,-99.9,30.01,East,100,9.0,13.0,-999,-99.99,,,-99.99,,2013-02-01 07:12:00,
2013-02-01 03:22:00,76.0,-99.9,30.01,East,100,9.0,13.0,-999,-99.99,,,-99.99,,2013-02-01 07:22:00,
2013-02-01 03:32:00,76.0,-99.9,30.00,ESE,110,9.0,11.0,-999,-99.99,,,-99.99,,2013-02-01 07:32:00,
2013-02-01 03:42:00,76.0,-99.9,30.00,ESE,110,9.0,11.0,-999,-99.99,,,-99.99,,2013-02-01 07:42:00,
2013-02-01 03:52:00,76.0,-99.9,30.00,ESE,110,9.0,11.0,-999,-99.99,,,-99.99,,2013-02-01 07:52:00,
2013-02-01 04:02:00,76.0,-99.9,30.00,SE,130,4.0,9.0,-999,-99.99,,,-99.99,,2013-02-01 08:02:00,
2013-02-01 04:11:00,76.0,-99.9,30.00,SE,130,4.0,9.0,-999,-99.99,,,-99.99,,2013-02-01 08:11:00,
2013-02-01 04:22:00,76.0,-99.9,30.00,SE,130,4.0,9.0,-999,-99.99,,,-99.99,,2013-02-01 08:22:00,
2013-02-01 04:32:00,76.0,-99.9,29.99,ESE,120,9.0,11.0,-999,-99.99,,,-99.99,,2013-02-01 08:32:00,
2013-02-01 04:42:00,76.0,-99.9,29.99,ESE,120,9.0,11.0,-999,-99.99,,,-99.99,,2013-02-01 08:42:00,
2013-02-01 04:52:00,76.0,-99.9,29.99,ESE,120,9.0,11.0,-999,-99.99,,,-99.99,,2013-02-01 08:52:00,
2013-02-01 05:02:00,77.0,-99.9,29.99,ESE,120,9.0,11.0,-999,-99.99,,,-99.99,,2013-02-01 09:02:00,
2013-02-01 05:11:00,77.0,-99.9,29.99,ESE,120,9.0,11.0,-999,-99.99,,,-99.99,,2013-02-01 09:11:00,
2013-02-01 05:22:00,77.0,-99.9,29.99,ESE,120,9.0,11.0,-999,-99.99,,,-99.99,,2013-02-01 09:22:00,
2013-02-01 05:32:00,75.0,-99.9,30.00,East,100,13.0,20.0,-999,-99.99,,,-99.99,,2013-02-01 09:32:00,
2013-02-01 05:42:00,75.0,-99.9,30.00,East,100,13.0,20.0,-999,-99.99,,,-99.99,,2013-02-01 09:42:00,
2013-02-01 05:52:00,75.0,-99.9,30.00,East,100,13.0,20.0,-999,-99.99,,,-99.99,,2013-02-01 09:52:00,
2013-02-01 06:01:00,73.0,-99.9,30.01,East,90,13.0,16.0,-999,-99.99,,,-99.99,,2013-02-01 10:01:00,
2013-02-01 06:11:00,73.0,-99.9,30.01,East,90,13.0,16.0,-999,-99.99,,,-99.99,,2013-02-01 10:11:00,
2013-02-01 06:21:00,73.0,-99.9,30.01,East,90,13.0,16.0,-999,-99.99,,,-99.99,,2013-02-01 10:21:00,
2013-02-01 06:32:00,74.0,-99.9,30.01,East,80,13.0,20.0,-999,-99.99,,,-99.99,,2013-02-01 10:32:00,
2013-02-01 06:43:00,74.0,-99.9,30.01,East,80,13.0,20.0,-999,-99.99,,,-99.99,,2013-02-01 10:43:00,
2013-02-01 06:53:00,74.0,-99.9,30.01,East,80,13.0,20.0,-999,-99.99,,,-99.99,,2013-02-01 10:53:00,
2013-02-01 07:02:00,75.0,-99.9,30.01,ESE,120,13.0,18.0,-999,-99.99,,,-99.99,,2013-02-01 11:02:00,
2013-02-01 07:11:00,75.0,-99.9,30.01,ESE,120,13.0,18.0,-999,-99.99,,,-99.99,,2013-02-01 11:11:00,
2013-02-01 07:22:00,75.0,-99.9,30.01,ESE,120,13.0,18.0,-999,-99.99,,,-99.99,,2013-02-01 11:22:00,
2013-02-01 07:32:00,75.0,-99.9,30.02,ESE,110,13.0,18.0,-999,-99.99,,,-99.99,,2013-02-01 11:32:00,
2013-02-01 07:42:00,75.0,-99.9,30.02,ESE,110,13.0,18.0,-999,-99.99,,,-99.99,,2013-02-01 11:42:00,
2013-02-01 07:53:00,75.0,-99.9,30.02,ESE,110,13.0,18.0,-999,-99.99,,,-99.99,,2013-02-01 11:53:00,
2013-02-01 08:03:00,75.0,-99.9,30.03,SE,130,9.0,13.0,-999,-99.99,,,-99.99,,2013-02-01 12:03:00,
2013-02-01 08:12:00,75.0,-99.9,30.03,SE,130,9.0,13.0,-999,-99.99,,,-99.99,,2013-02-01 12:12:00,
2013-02-01 08:23:00,75.0,-99.9,30.03,SE,130,9.0,13.0,-999,-99.99,,,-99.99,,2013-02-01 12:23:00,
2013-02-01 08:32:00,75.0,-99.9,30.03,ESE,110,7.0,9.0,-999,-99.99,,,-99.99,,2013-02-01 12:32:00,
2013-02-01 08:42:00,75.0,-99.9,30.03,ESE,110,7.0,9.0,-999,-99.99,,,-99.99,,2013-02-01 12:42:00,
2013-02-01 08:52:00,75.0,-99.9,30.03,ESE,110,7.0,9.0,-999,-99.99,,,-99.99,,2013-02-01 12:52:00,
2013-02-01 09:02:00,75.0,-99.9,30.05,ESE,110,16.0,25.0,-999,-99.99,,,-99.99,,2013-02-01 13:02:00,
2013-02-01 09:12:00,75.0,-99.9,30.05,ESE,110,16.0,25.0,-999,-99.99,,,-99.99,,2013-02-01 13:12:00,
2013-02-01 09:22:00,75.0,-99.9,30.05,ESE,110,16.0,25.0,-999,-99.99,,,-99.99,,2013-02-01 13:22:00,
2013-02-01 09:33:00,73.0,-99.9,30.07,ESE,120,11.0,16.0,-999,-99.99,,,-99.99,,2013-02-01 13:33:00,
2013-02-01 09:43:00,73.0,-99.9,30.07,ESE,120,11.0,16.0,-999,-99.99,,,-99.99,,2013-02-01 13:43:00,
2013-02-01 09:53:00,73.0,-99.9,30.07,ESE,120,11.0,16.0,-999,-99.99,,,-99.99,,2013-02-01 13:53:00,
2013-02-01 10:04:00,74.0,-99.9,30.07,ESE,120,7.0,7.0,-999,-99.99,,,-99.99,,2013-02-01 14:04:00,
2013-02-01 10:12:00,74.0,-99.9,30.07,ESE,120,7.0,7.0,-999,-99.99,,,-99.99,,2013-02-01 14:12:00,
2013-02-01 10:22:00,74.0,-99.9,30.07,ESE,120,7.0,7.0,-999,-99.99,,,-99.99,,2013-02-01 14:22:00,
2013-02-01 10:33:00,75.0,-99.9,30.07,ESE,110,9.0,13.0,-999,-99.99,,,-99.99,,2013-02-01 14:33:00,
2013-02-01 10:43:00,75.0,-99.9,30.07,ESE,110,9.0,13.0,-999,-99.99,,,-99.99,,2013-02-01 14:43:00,
2013-02-01 10:53:00,75.0,-99.9,30.07,ESE,110,9.0,13.0,-999,-99.99,,,-99.99,,2013-02-01 14:53:00,
2013-02-01 11:03:00,77.0,-99.9,30.07,ESE,110,7.0,11.0,-999,-99.99,,,-99.99,,2013-02-01 15:03:00,
2013-02-01 11:12:00,77.0,-99.9,30.07,ESE,110,7.0,11.0,-999,-99.99,,,-99.99,,2013-02-01 15:12:00,
2013-02-01 11:22:00,77.0,-99.9,30.07,ESE,110,7.0,11.0,-999,-99.99,,,-99.99,,2013-02-01 15:22:00,
2013-02-01 11:33:00,78.0,-99.9,30.07,ESE,110,11.0,13.0,-999,-99.99,,,-99.99,,2013-02-01 15:33:00,
2013-02-01 11:42:00,78.0,-99.9,30.07,ESE,110,11.0,13.0,-999,-99.99,,,-99.99,,2013-02-01 15:42:00,
2013-02-01 11:52:00,78.0,-99.9,30.07,ESE,110,11.0,13.0,-999,-99.99,,,-99.99,,2013-02-01 15:52:00,
2013-02-01 12:03:00,78.0,-99.9,30.06,East,90,13.0,16.0,-999,-99.99,,,-99.99,,2013-02-01 16:03:00,
2013-02-01 12:12:00,78.0,-99.9,30.06,East,90,13.0,16.0,-999,-99.99,,,-99.99,,2013-02-01 16:12:00,
2013-02-01 12:22:00,78.0,-99.9,30.06,East,90,13.0,16.0,-999,-99.99,,,-99.99,,2013-02-01 16:22:00,
2013-02-01 12:33:00,76.0,-99.9,30.06,East,80,18.0,25.0,-999,-99.99,,,-99.99,,2013-02-01 16:33:00,
2013-02-01 12:43:00,76.0,-99.9,30.06,East,80,18.0,25.0,-999,-99.99,,,-99.99,,2013-02-01 16:43:00,
2013-02-01 12:53:00,76.0,-99.9,30.06,East,80,18.0,25.0,-999,-99.99,,,-99.99,,2013-02-01 16:53:00,
2013-02-01 13:03:00,77.0,-99.9,30.04,East,100,13.0,16.0,-999,-99.99,,,-99.99,,2013-02-01 17:03:00,
2013-02-01 13:12:00,77.0,-99.9,30.04,East,100,13.0,16.0,-999,-99.99,,,-99.99,,2013-02-01 17:12:00,
2013-02-01 13:22:00,77.0,-99.9,30.04,East,100,13.0,16.0,-999,-99.99,,,-99.99,,2013-02-01 17:22:00,
2013-02-01 13:32:00,76.0,-99.9,30.03,ESE,120,16.0,18.0,-999,-99.99,,,-99.99,,2013-02-01 17:32:00,
2013-02-01 13:42:00,76.0,-99.9,30.03,ESE,120,16.0,18.0,-999,-99.99,,,-99.99,,2013-02-01 17:42:00,
2013-02-01 13:53:00,76.0,-99.9,30.03,ESE,120,16.0,18.0,-999,-99.99,,,-99.99,,2013-02-01 17:53:00,
2013-02-01 14:03:00,77.0,-99.9,30.02,East,100,11.0,13.0,-999,-99.99,,,-99.99,,2013-02-01 18:03:00,
2013-02-01 14:13:00,77.0,-99.9,30.02,East,100,11.0,13.0,-999,-99.99,,,-99.99,,2013-02-01 18:13:00,
2013-02-01 14:23:00,77.0,-99.9,30.02,East,100,11.0,13.0,-999,-99.99,,,-99.99,,2013-02-01 18:23:00,
2013-02-01 14:33:00,78.0,-99.9,30.01,ESE,110,11.0,13.0,-999,-99.99,,,-99.99,,2013-02-01 18:33:00,
2013-02-01 14:42:00,78.0,-99.9,30.01,ESE,110,11.0,13.0,-999,-99.99,,,-99.99,,2013-02-01 18:42:00,
2013-02-01 14:53:00,78.0,-99.9,30.01,ESE,110,11.0,13.0,-999,-99.99,,,-99.99,,2013-02-01 18:53:00,
2013-02-01 15:03:00,78.0,-99.9,30.00,East,90,11.0,13.0,-999,-99.99,,,-99.99,,2013-02-01 19:03:00,
2013-02-01 15:12:00,78.0,-99.9,30.00,East,90,11.0,13.0,-999,-99.99,,,-99.99,,2013-02-01 19:12:00,
2013-02-01 15:22:00,78.0,-99.9,30.00,East,90,11.0,13.0,-999,-99.99,,,-99.99,,2013-02-01 19:22:00,
2013-02-01 15:33:00,79.0,-99.9,29.99,East,90,13.0,18.0,-999,-99.99,,,-99.99,,2013-02-01 19:33:00,
2013-02-01 15:42:00,79.0,-99.9,29.99,East,90,13.0,18.0,-999,-99.99,,,-99.99,,2013-02-01 19:42:00,
2013-02-01 15:52:00,79.0,-99.9,29.99,East,90,13.0,18.0,-999,-99.99,,,-99.99,,2013-02-01 19:52:00,
2013-02-01 16:02:00,79.0,-99.9,29.98,East,90,13.0,16.0,-999,-99.99,,,-99.99,,2013-02-01 20:02:00,
2013-02-01 16:12:00,79.0,-99.9,29.98,East,90,13.0,16.0,-999,-99.99,,,-99.99,,2013-02-01 20:12:00,
2013-02-01 16:22:00,79.0,-99.9,29.98,East,90,13.0,16.0,-999,-99.99,,,-99.99,,2013-02-01 20:22:00,
2013-02-01 16:32:00,79.0,-99.9,29.98,East,80,13.0,18.0,-999,-99.99,,,-99.99,,2013-02-01 20:32:00,
2013-02-01 16:42:00,79.0,-99.9,29.98,East,80,13.0,18.0,-999,-99.99,,,-99.99,,2013-02-01 20:42:00,
2013-02-01 16:52:00,79.0,-99.9,29.98,East,80,13.0,18.0,-999,-99.99,,,-99.99,,2013-02-01 20:52:00,
2013-02-01 17:02:00,79.0,-99.9,29.98,East,90,13.0,18.0,-999,-99.99,,,-99.99,,2013-02-01 21:02:00,
2013-02-01 17:12:00,79.0,-99.9,29.98,East,90,13.0,18.0,-999,-99.99,,,-99.99,,2013-02-01 21:12:00,
2013-02-01 17:22:00,79.0,-99.9,29.98,East,90,13.0,18.0,-999,-99.99,,,-99.99,,2013-02-01 21:22:00,
2013-02-01 17:32:00,79.0,-99.9,29.98,East,90,13.0,16.0,-999,-99.99,,,-99.99,,2013-02-01 21:32:00,
2013-02-01 17:42:00,79.0,-99.9,29.98,East,90,13.0,16.0,-999,-99.99,,,-99.99,,2013-02-01 21:42:00,
2013-02-01 17:53:00,79.0,-99.9,29.98,East,90,13.0,16.0,-999,-99.99,,,-99.99,,2013-02-01 21:53:00,
2013-02-01 18:03:00,79.0,-99.9,29.99,East,80,13.0,18.0,-999,-99.99,,,-99.99,,2013-02-01 22:03:00,
2013-02-01 18:11:00,79.0,-99.9,29.99,East,80,13.0,18.0,-999,-99.99,,,-99.99,,2013-02-01 22:11:00,
2013-02-01 18:22:00,79.0,-99.9,29.99,East,80,13.0,18.0,-999,-99.99,,,-99.99,,2013-02-01 22:22:00,
2013-02-01 18:32:00,79.0,-99.9,30.00,East,80,13.0,16.0,-999,-99.99,,,-99.99,,2013-02-01 22:32:00,
2013-02-01 18:42:00,79.0,-99.9,30.00,East,80,13.0,16.0,-999,-99.99,,,-99.99,,2013-02-01 22:42:00,
2013-02-01 18:52:00,79.0,-99.9,30.00,East,80,13.0,16.0,-999,-99.99,,,-99.99,,2013-02-01 22:52:00,
2013-02-01 19:02:00,79.0,-99.9,30.00,East,90,13.0,18.0,-999,-99.99,,,-99.99,,2013-02-01 23:02:00,
2013-02-01 19:11:00,79.0,-99.9,30.00,East,90,13.0,18.0,-999,-99.99,,,-99.99,,2013-02-01 23:11:00,
2013-02-01 19:22:00,79.0,-99.9,30.00,East,90,13.0,18.0,-999,-99.99,,,-99.99,,2013-02-01 23:22:00,
2013-02-01 19:32:00,79.0,-99.9,30.00,East,80,13.0,16.0,-999,-99.99,,,-99.99,,2013-02-01 23:32:00,
2013-02-01 19:42:00,79.0,-99.9,30.00,East,80,13.0,16.0,-999,-99.99,,,-99.99,,2013-02-01 23:42:00,
2013-02-01 19:52:00,79.0,-99.9,30.00,East,80,13.0,16.0,-999,-99.99,,,-99.99,,2013-02-01 23:52:00,
2013-02-01 20:02:00,79.0,-99.9,30.01,East,80,11.0,13.0,-999,-99.99,,,-99.99,,2013-02-02 00:02:00,
2013-02-01 20:11:00,79.0,-99.9,30.01,East,80,11.0,13.0,-999,-99.99,,,-99.99,,2013-02-02 00:11:00,
2013-02-01 20:22:00,79.0,-99.9,30.01,East,80,11.0,13.0,-999,-99.99,,,-99.99,,2013-02-02 00:22:00,
2013-02-01 20:32:00,79.0,-99.9,30.03,East,80,11.0,16.0,-999,-99.99,,,-99.99,,2013-02-02 00:32:00,
2013-02-01 20:42:00,79.0,-99.9,30.03,East,80,11.0,16.0,-999,-99.99,,,-99.99,,2013-02-02 00:42:00,
2013-02-01 20:52:00,79.0,-99.9,30.03,East,80,11.0,16.0,-999,-99.99,,,-99.99,,2013-02-02 00:52:00,
2013-02-01 21:03:00,79.0,-99.9,30.03,East,90,13.0,16.0,-999,-99.99,,,-99.99,,2013-02-02 01:03:00,
2013-02-01 21:11:00,79.0,-99.9,30.03,East,90,13.0,16.0,-999,-99.99,,,-99.99,,2013-02-02 01:11:00,
2013-02-01 21:22:00,79.0,-99.9,30.03,East,90,13.0,16.0,-999,-99.99,,,-99.99,,2013-02-02 01:22:00,
2013-02-01 21:32:00,79.0,-99.9,30.03,East,80,13.0,16.0,-999,-99.99,,,-99.99,,2013-02-02 01:32:00,
2013-02-01 21:42:00,79.0,-99.9,30.03,East,80,13.0,16.0,-999,-99.99,,,-99.99,,2013-02-02 01:42:00,
2013-02-01 21:52:00,79.0,-99.9,30.03,East,80,13.0,16.0,-999,-99.99,,,-99.99,,2013-02-02 01:52:00,
2013-02-01 22:01:00,78.0,-99.9,30.04,East,80,13.0,20.0,-999,-99.99,,,-99.99,,2013-02-02 02:01:00,
2013-02-01 22:11:00,78.0,-99.9,30.04,East,80,13.0,20.0,-999,-99.99,,,-99.99,,2013-02-02 02:11:00,
2013-02-01 22:22:00,78.0,-99.9,30.04,East,80,13.0,20.0,-999,-99.99,,,-99.99,,2013-02-02 02:22:00,
2013-02-01 22:32:00,79.0,-99.9,30.04,ENE,70,13.0,16.0,-999,-99.99,,,-99.99,,2013-02-02 02:32:00,
2013-02-01 22:42:00,79.0,-99.9,30.04,ENE,70,13.0,16.0,-999,-99.99,,,-99.99,,2013-02-02 02:42:00,
2013-02-01 22:52:00,79.0,-99.9,30.04,ENE,70,13.0,16.0,-999,-99.99,,,-99.99,,2013-02-02 02:52:00,
2013-02-01 23:02:00,79.0,-99.9,30.04,ENE,70,11.0,16.0,-999,-99.99,,,-99.99,,2013-02-02 03:02:00,
2013-02-01 23:11:00,79.0,-99.9,30.04,ENE,70,11.0,16.0,-999,-99.99,,,-99.99,,2013-02-02 03:11:00,
2013-02-01 23:22:00,79.0,-99.9,30.04,ENE,70,11.0,16.0,-999,-99.99,,,-99.99,,2013-02-02 03:22:00,
2013-02-01 23:32:00,79.0,-99.9,30.04,ENE,70,13.0,16.0,-999,-99.99,,,-99.99,,2013-02-02 03:32:00,
2013-02-01 23:42:00,79.0,-99.9,30.04,ENE,70,13.0,16.0,-999,-99.99,,,-99.99,,2013-02-02 03:42:00,
2013-02-01 23:52:00,79.0,-99.9,30.04,ENE,70,13.0,16.0,-999,-99.99,,,-99.99,,2013-02-02 03:52:00,